Time;durP1;ratioP1;P1;durP2;ratioP2;P2;SDS_P1;SDS_P2;PMS_P1;PMS_P2;Temp;Humidity;BMP_temperature;BMP_pressure;BME280_temperature;BME280_humidity;BME280_pressure;Samples;Min_cycle;Max_cycle;Signal;HPM_P1;HPM_P2
2023/03/15 00:00:54;;;;;;;0.80;0.80;;;;;;;1.86;93.59;101150.91;5074446;28;20020;-81
2023/03/15 00:03:23;;;;;;;0.77;0.63;;;;;;;1.85;92.98;101151.72;5073874;28;20388;-81
2023/03/15 00:05:48;;;;;;;0.70;0.70;;;;;;;1.87;93.31;101168.00;5074238;28;20021;-81
2023/03/15 00:08:14;;;;;;;0.70;0.70;;;;;;;1.87;93.76;101150.06;5074428;28;20497;-81
2023/03/15 00:10:44;;;;;;;1.52;0.90;;;;;;;1.86;95.13;101132.97;5073468;28;20024;-82
2023/03/15 00:13:10;;;;;;;0.70;0.70;;;;;;;1.84;94.27;101138.06;5068897;28;20451;-81
2023/03/15 00:15:47;;;;;;;2.10;1.30;;;;;;;1.82;94.04;101141.41;5073802;28;20070;-81
2023/03/15 00:18:14;;;;;;;0.80;0.80;;;;;;;1.83;93.42;101145.69;5073621;28;20058;-81
2023/03/15 00:20:39;;;;;;;1.27;1.17;;;;;;;1.81;94.02;101135.44;5074111;28;20392;-81
2023/03/15 00:23:04;;;;;;;1.15;0.90;;;;;;;1.83;92.88;101140.56;5071763;28;20056;-81
2023/03/15 00:25:30;;;;;;;0.80;0.80;;;;;;;1.85;92.41;101147.50;5073898;28;20103;-81
2023/03/15 00:27:55;;;;;;;0.80;0.80;;;;;;;1.86;91.80;101150.91;5073795;28;20024;-81
2023/03/15 00:30:20;;;;;;;0.80;0.80;;;;;;;1.91;93.53;101154.47;5073351;28;20123;-81
2023/03/15 00:32:46;;;;;;;1.38;1.27;;;;;;;1.90;93.18;101150.16;5073739;28;20027;-81
2023/03/15 00:35:17;;;;;;;1.88;1.05;;;;;;;1.93;91.56;101151.94;5074096;28;20027;-81
2023/03/15 00:37:42;;;;;;;1.15;1.15;;;;;;;1.96;89.96;101144.34;5073179;28;20025;-81
2023/03/15 00:40:08;;;;;;;2.60;1.25;;;;;;;1.99;90.27;101157.19;5073326;28;20491;-81
2023/03/15 00:42:34;;;;;;;1.15;1.15;;;;;;;2.02;90.74;101148.75;5073266;28;20495;-81
2023/03/15 00:44:59;;;;;;;0.82;0.82;;;;;;;2.03;90.60;101155.59;5072234;28;20025;-82
2023/03/15 00:47:25;;;;;;;1.20;1.10;;;;;;;2.04;90.46;101144.50;5073661;28;20025;-82
2023/03/15 00:49:50;;;;;;;1.15;0.85;;;;;;;2.07;89.95;101144.59;5073513;28;20024;-81
2023/03/15 00:52:17;;;;;;;1.17;1.08;;;;;;;2.09;89.08;101145.50;5072788;28;20033;-81
2023/03/15 00:54:43;;;;;;;0.73;0.73;;;;;;;2.09;90.69;101153.16;5073377;28;20021;-81
2023/03/15 00:57:08;;;;;;;0.60;0.60;;;;;;;2.10;90.93;101150.63;5073173;28;20053;-81
2023/03/15 00:59:34;;;;;;;0.47;0.47;;;;;;;2.11;90.95;101152.38;5072969;28;20086;-81
2023/03/15 01:02:03;;;;;;;0.70;0.70;;;;;;;2.11;91.25;101157.50;5072650;28;20123;-81
2023/03/15 01:04:28;;;;;;;0.50;0.50;;;;;;;2.14;90.66;101159.25;5073124;28;20081;-80
2023/03/15 01:06:54;;;;;;;0.73;0.73;;;;;;;2.14;90.03;101152.44;5072130;28;20024;-81
2023/03/15 01:09:19;;;;;;;0.60;0.60;;;;;;;2.16;90.89;101155.03;5072726;28;20472;-81
2023/03/15 01:11:44;;;;;;;1.92;0.80;;;;;;;2.17;91.21;101156.78;5072531;28;20105;-81
2023/03/15 01:14:10;;;;;;;1.75;0.70;;;;;;;2.21;90.59;101152.59;5072605;28;20465;-82
2023/03/15 01:16:35;;;;;;;1.00;0.88;;;;;;;2.19;91.51;101151.72;5072935;28;20090;-81
2023/03/15 01:19:00;;;;;;;0.70;0.70;;;;;;;2.22;91.92;101157.75;5072778;28;20052;-81
2023/03/15 01:21:26;;;;;;;0.63;0.63;;;;;;;2.23;91.57;101164.63;5072424;28;20533;-81
2023/03/15 01:23:52;;;;;;;0.60;0.60;;;;;;;2.22;92.32;101165.44;5072430;28;20037;-81
2023/03/15 01:26:21;;;;;;;0.53;0.53;;;;;;;2.21;92.02;101167.94;5072777;28;20102;-81
2023/03/15 01:28:46;;;;;;;0.80;0.80;;;;;;;2.21;91.49;101170.50;5072436;28;20024;-81
2023/03/15 01:31:17;;;;;;;1.60;1.30;;;;;;;2.22;94.87;101174.81;5072735;28;20472;-81
2023/03/15 01:33:42;;;;;;;2.83;1.70;;;;;;;2.23;90.55;101173.97;5072174;28;20384;-81
2023/03/15 01:36:10;;;;;;;2.20;1.80;;;;;;;2.22;92.17;101178.25;5072557;28;20024;-82
2023/03/15 01:38:36;;;;;;;3.75;1.90;;;;;;;2.21;94.29;101173.97;5072809;28;20031;-82
2023/03/15 01:41:01;;;;;;;2.17;1.90;;;;;;;2.21;93.49;101180.75;5071727;28;20032;-81
2023/03/15 01:43:30;;;;;;;3.30;1.90;;;;;;;2.22;94.12;101185.94;5072777;28;20032;-81
2023/03/15 01:46:01;;;;;;;6.13;3.10;;;;;;;2.21;96.80;101184.19;5072512;28;20039;-81
2023/03/15 01:48:43;;;;;;;6.20;3.75;;;;;;;2.19;97.97;101182.44;5071959;28;20529;-82
2023/03/15 01:51:15;;;;;;;8.27;4.57;;;;;;;2.14;97.73;101187.41;5072604;28;20074;-82
2023/03/15 01:53:44;;;;;;;7.93;4.53;;;;;;;2.09;96.91;101181.34;5072669;28;20032;-82
2023/03/15 01:56:10;;;;;;;7.72;4.40;;;;;;;2.08;96.62;101185.59;5071789;28;20020;-82
2023/03/15 01:58:38;;;;;;;8.82;4.75;;;;;;;2.09;97.94;101200.09;5072749;28;20032;-82
2023/03/15 02:01:03;;;;;;;8.90;4.50;;;;;;;2.08;97.63;101202.63;5072113;28;20410;-82
2023/03/15 02:03:34;;;;;;;7.80;4.45;;;;;;;2.04;97.50;101201.69;5071739;28;20017;-82
2023/03/15 02:06:05;;;;;;;5.97;3.95;;;;;;;2.06;97.36;101200.06;5072500;28;20025;-82
2023/03/15 02:08:35;;;;;;;7.70;4.68;;;;;;;2.09;97.61;101205.22;5071825;28;20020;-80
2023/03/15 02:11:04;;;;;;;10.07;5.28;;;;;;;2.08;97.45;101210.31;5071805;28;20033;-81
2023/03/15 02:13:31;;;;;;;7.15;4.32;;;;;;;2.07;96.71;101214.59;5073364;28;20051;-82
2023/03/15 02:15:58;;;;;;;8.63;4.85;;;;;;;2.04;98.41;101217.06;5075308;28;20024;-82
2023/03/15 02:18:23;;;;;;;12.52;5.97;;;;;;;1.98;100.00;101228.00;5076841;28;20046;-82
2023/03/15 02:20:52;;;;;;;7.93;4.90;;;;;;;1.95;99.20;101229.63;5075899;28;20032;-82
2023/03/15 02:23:20;;;;;;;6.45;4.00;;;;;;;1.91;99.19;101238.94;5075256;28;20579;-82
2023/03/15 02:26:01;;;;;;;5.28;3.70;;;;;;;1.90;97.99;101239.75;5076059;28;20099;-82
2023/03/15 02:28:27;;;;;;;4.82;3.20;;;;;;;1.89;98.04;101238.00;5076224;28;20074;-82
2023/03/15 02:30:52;;;;;;;8.15;4.00;;;;;;;1.83;99.59;101231.03;5075387;28;20024;-82
2023/03/15 02:33:25;;;;;;;6.30;3.90;;;;;;;1.84;98.45;101227.66;5076413;28;20051;-82
2023/03/15 02:35:51;;;;;;;5.50;3.65;;;;;;;1.84;98.60;101237.00;5076051;28;20043;-82
2023/03/15 02:38:17;;;;;;;5.53;3.80;;;;;;;1.87;99.89;101236.22;5075222;28;20032;-82
2023/03/15 02:40:44;;;;;;;6.77;3.93;;;;;;;1.91;98.54;101236.38;5075707;28;20024;-82
2023/03/15 02:43:16;;;;;;;5.18;3.40;;;;;;;1.94;97.50;101233.88;5075702;28;20468;-82
2023/03/15 02:45:41;;;;;;;7.45;3.63;;;;;;;1.96;97.93;101227.09;5075588;28;20063;-82
2023/03/15 02:48:09;;;;;;;3.25;2.75;;;;;;;2.01;97.54;101245.13;5075738;28;20048;-82
2023/03/15 02:50:35;;;;;;;5.22;3.20;;;;;;;1.99;97.20;101229.75;5075849;28;20036;-82
2023/03/15 02:53:01;;;;;;;4.30;3.05;;;;;;;2.04;96.92;101239.22;5074862;28;20104;-82
2023/03/15 02:55:27;;;;;;;4.40;3.15;;;;;;;2.03;96.27;101232.41;5075635;28;20062;-81
2023/03/15 02:57:53;;;;;;;4.35;3.17;;;;;;;2.09;96.26;101241.06;5074018;28;20560;-82
2023/03/15 03:00:18;;;;;;;3.13;2.67;;;;;;;2.10;96.43;101247.09;5075807;28;20016;-82
2023/03/15 03:02:46;;;;;;;4.78;3.47;;;;;;;2.09;97.77;101246.19;5075152;28;20039;-82
2023/03/15 03:05:13;;;;;;;4.53;3.00;;;;;;;2.10;97.06;101253.06;5074592;28;20028;-82
2023/03/15 03:07:43;;;;;;;4.75;3.03;;;;;;;2.07;96.98;101247.00;5075625;28;20032;-82
2023/03/15 03:10:10;;;;;;;3.97;2.97;;;;;;;2.11;96.82;101259.06;5075169;28;20031;-82
2023/03/15 03:12:35;;;;;;;4.13;3.08;;;;;;;2.12;96.61;101269.34;5074791;28;20040;-81
2023/03/15 03:15:03;;;;;;;6.30;3.75;;;;;;;2.13;97.89;101270.22;5074957;28;20495;-82
2023/03/15 03:17:29;;;;;;;7.18;3.90;;;;;;;2.11;97.38;101284.66;5075438;28;20024;-81
2023/03/15 03:19:54;;;;;;;5.35;3.45;;;;;;;2.10;97.27;101288.06;5074503;28;20141;-81
2023/03/15 03:22:23;;;;;;;6.03;3.92;;;;;;;2.07;98.31;101287.97;5075249;28;20499;-81
2023/03/15 03:24:50;;;;;;;7.15;4.07;;;;;;;2.03;97.22;101293.84;5074141;28;20048;-81
2023/03/15 03:27:16;;;;;;;6.68;4.20;;;;;;;2.00;97.92;101297.16;5074559;28;20120;-81
2023/03/15 03:29:41;;;;;;;6.88;4.00;;;;;;;1.95;96.63;101304.72;5075228;28;20024;-81
2023/03/15 03:32:08;;;;;;;4.63;3.42;;;;;;;1.92;96.98;101302.06;5074461;28;20032;-82
2023/03/15 03:34:38;;;;;;;4.80;3.30;;;;;;;1.88;96.30;101307.94;5073945;28;20358;-82
2023/03/15 03:37:06;;;;;;;5.07;3.13;;;;;;;1.82;97.50;101306.09;5074264;28;20103;-81
2023/03/15 03:39:32;;;;;;;4.47;3.10;;;;;;;1.76;96.49;101310.16;5074954;28;20036;-82
2023/03/15 03:41:57;;;;;;;4.07;2.92;;;;;;;1.72;96.22;101316.00;5073318;28;20033;-82
2023/03/15 03:44:22;;;;;;;3.85;2.67;;;;;;;1.66;96.09;101315.03;5074949;28;20099;-81
2023/03/15 03:46:47;;;;;;;3.65;2.80;;;;;;;1.64;95.66;101324.34;5074463;28;20447;-81
2023/03/15 03:49:13;;;;;;;3.63;2.80;;;;;;;1.57;95.89;101324.09;5074022;28;20029;-81
2023/03/15 03:51:40;;;;;;;4.20;2.90;;;;;;;1.52;95.74;101322.28;5074505;28;20035;-81
2023/03/15 03:54:05;;;;;;;2.88;2.40;;;;;;;1.52;95.53;101327.38;5073764;28;20032;-81
2023/03/15 03:56:31;;;;;;;2.88;2.50;;;;;;;1.51;95.44;101327.34;5074752;28;20054;-82
2023/03/15 03:58:56;;;;;;;3.17;2.60;;;;;;;1.46;95.18;101327.22;5074144;28;20029;-81
2023/03/15 04:01:21;;;;;;;4.20;2.80;;;;;;;1.40;94.91;101321.94;5073618;28;20687;-81
2023/03/15 04:03:47;;;;;;;3.40;2.60;;;;;;;1.41;94.78;101333.88;5073883;28;20013;-81
2023/03/15 04:06:13;;;;;;;3.33;2.60;;;;;;;1.38;94.55;101334.66;5073819;28;20029;-81
2023/03/15 04:08:39;;;;;;;3.70;2.63;;;;;;;1.32;95.41;101331.94;5073506;28;20362;-81
2023/03/15 04:11:05;;;;;;;3.97;2.65;;;;;;;1.31;95.00;101344.66;5074105;28;20303;-81
2023/03/15 04:13:31;;;;;;;2.70;2.33;;;;;;;1.29;94.95;101357.41;5074197;28;20487;-82
2023/03/15 04:15:57;;;;;;;4.22;2.60;;;;;;;1.28;94.63;101371.00;5073219;28;20154;-81
2023/03/15 04:18:23;;;;;;;3.53;2.70;;;;;;;1.27;94.17;101369.25;5074235;28;20444;-81
2023/03/15 04:20:48;;;;;;;4.10;2.90;;;;;;;1.26;94.14;101376.88;5073731;28;20033;-81
2023/03/15 04:23:15;;;;;;;4.57;2.90;;;;;;;1.23;93.93;101373.41;5073073;28;20127;-81
2023/03/15 04:25:41;;;;;;;4.20;2.80;;;;;;;1.19;94.55;101381.78;5074434;28;20044;-81
2023/03/15 04:28:09;;;;;;;3.35;2.58;;;;;;;1.16;94.30;101384.28;5073695;28;20486;-82
2023/03/15 04:30:37;;;;;;;3.38;2.55;;;;;;;1.14;94.29;101388.47;5073188;28;20028;-82
2023/03/15 04:33:03;;;;;;;3.67;2.63;;;;;;;1.16;94.12;101391.06;5073596;28;20027;-81
2023/03/15 04:35:31;;;;;;;5.90;3.28;;;;;;;1.06;95.01;101393.31;5073288;28;20028;-81
2023/03/15 04:37:56;;;;;;;5.63;3.22;;;;;;;1.04;94.60;101392.41;5071380;28;20020;-81
2023/03/15 04:40:23;;;;;;;5.10;3.33;;;;;;;1.00;94.52;101398.25;5073669;28;20028;-81
2023/03/15 04:42:49;;;;;;;5.20;3.20;;;;;;;0.97;94.20;101392.16;5073545;28;20025;-81
2023/03/15 04:45:15;;;;;;;4.90;3.28;;;;;;;0.96;93.99;101398.97;5072975;28;20063;-81
2023/03/15 04:47:41;;;;;;;5.72;3.30;;;;;;;0.96;93.86;101401.50;5073646;28;20028;-81
2023/03/15 04:50:09;;;;;;;4.25;3.00;;;;;;;0.91;94.28;101403.03;5073115;28;20051;-81
2023/03/15 04:52:34;;;;;;;4.13;3.10;;;;;;;0.89;94.01;101402.13;5072758;28;20074;-81
2023/03/15 04:55:00;;;;;;;4.45;2.85;;;;;;;0.89;94.00;101407.25;5073456;28;20036;-82
2023/03/15 04:57:25;;;;;;;3.97;3.03;;;;;;;0.84;94.29;101408.75;5072514;28;20110;-81
2023/03/15 04:59:50;;;;;;;4.75;3.10;;;;;;;0.81;93.71;101414.66;5073068;28;20032;-81
2023/03/15 05:02:16;;;;;;;4.22;3.03;;;;;;;0.77;93.84;101418.78;5073196;28;20031;-81
2023/03/15 05:04:41;;;;;;;4.57;3.08;;;;;;;0.74;94.15;101423.78;5072210;28;20409;-81
2023/03/15 05:07:09;;;;;;;4.90;2.90;;;;;;;0.73;93.94;101427.16;5073105;28;20029;-81
2023/03/15 05:09:37;;;;;;;4.40;2.90;;;;;;;0.72;93.88;101433.09;5072836;28;20117;-81
2023/03/15 05:12:05;;;;;;;4.75;2.85;;;;;;;0.72;93.98;101439.91;5072071;28;20028;-81
2023/03/15 05:14:34;;;;;;;4.18;3.03;;;;;;;0.71;94.82;101441.56;5072800;28;20129;-81
2023/03/15 05:17:01;;;;;;;5.05;2.97;;;;;;;0.60;95.05;101422.44;5072844;28;20154;-82
2023/03/15 05:19:26;;;;;;;4.10;2.85;;;;;;;0.66;94.83;101438.00;5072170;28;20048;-81
2023/03/15 05:21:53;;;;;;;4.10;2.83;;;;;;;0.64;94.36;101441.28;5072903;28;20094;-81
2023/03/15 05:24:18;;;;;;;;;;;;;;;0.63;94.39;101435.31;5073256;28;20242;-81
2023/03/15 05:26:45;;;;;;;3.83;2.83;;;;;;;0.63;94.15;101450.66;5072381;28;20450;-81
2023/03/15 05:29:14;;;;;;;4.25;2.92;;;;;;;0.62;93.87;101451.47;5073176;28;20029;-82
2023/03/15 05:31:39;;;;;;;4.68;3.08;;;;;;;0.60;93.86;101448.88;5072382;28;20029;-81
2023/03/15 05:34:06;;;;;;;4.65;3.00;;;;;;;0.59;94.11;101452.22;5071997;28;20050;-81
2023/03/15 05:36:33;;;;;;;5.28;3.30;;;;;;;0.59;93.94;101453.91;5072898;28;20029;-81
2023/03/15 05:38:58;;;;;;;5.15;3.08;;;;;;;0.57;94.03;101453.84;5072757;28;20028;-81
2023/03/15 05:41:24;;;;;;;5.07;3.00;;;;;;;0.56;93.91;101458.94;5072239;28;20017;-81
2023/03/15 05:43:50;;;;;;;5.13;3.22;;;;;;;0.54;94.00;101463.97;5072075;28;20025;-81
2023/03/15 05:46:16;;;;;;;3.83;2.80;;;;;;;0.53;93.58;101466.47;5072688;28;20103;-81
2023/03/15 05:48:42;;;;;;;5.82;3.30;;;;;;;0.52;93.93;101465.59;5071565;28;20549;-81
2023/03/15 05:51:07;;;;;;;5.07;3.28;;;;;;;0.49;93.61;101467.16;5071880;28;20028;-81
2023/03/15 05:53:32;;;;;;;4.97;3.13;;;;;;;0.50;93.77;101477.44;5072644;28;20051;-81
2023/03/15 05:55:58;;;;;;;4.45;3.00;;;;;;;0.44;93.98;101465.34;5071278;28;20016;-81
2023/03/15 05:58:23;;;;;;;6.03;3.30;;;;;;;0.45;94.15;101477.25;5072618;28;20020;-81
2023/03/15 06:00:48;;;;;;;4.93;3.25;;;;;;;0.43;93.97;101473.81;5071047;28;20032;-81
2023/03/15 06:03:15;;;;;;;4.72;3.00;;;;;;;0.42;94.27;101482.28;5072291;28;20119;-81
2023/03/15 06:05:40;;;;;;;4.78;2.88;;;;;;;0.39;94.15;101482.16;5072607;28;20358;-81
2023/03/15 06:08:06;;;;;;;4.43;2.70;;;;;;;0.40;94.06;101494.13;5071674;28;20075;-81
2023/03/15 06:10:32;;;;;;;3.88;2.80;;;;;;;0.39;94.40;101499.19;5072357;28;20028;-81
2023/03/15 06:13:04;;;;;;;3.85;2.80;;;;;;;0.36;94.06;101496.50;5072115;28;20025;-82
2023/03/15 06:15:30;;;;;;;3.83;2.65;;;;;;;0.42;94.18;101517.13;5071726;28;20020;-82
2023/03/15 06:17:55;;;;;;;4.43;3.00;;;;;;;0.43;93.81;101509.56;5072323;28;20082;-81
2023/03/15 06:20:20;;;;;;;5.00;3.17;;;;;;;0.45;93.75;101513.00;5072569;28;20473;-81
2023/03/15 06:22:46;;;;;;;5.07;3.05;;;;;;;0.50;94.06;101510.66;5070686;28;20076;-81
2023/03/15 06:25:11;;;;;;;5.00;3.10;;;;;;;0.53;94.38;101510.75;5072424;28;20029;-82
2023/03/15 06:27:37;;;;;;;4.38;2.78;;;;;;;0.55;93.84;101519.34;5072241;28;20036;-82
2023/03/15 06:30:03;;;;;;;5.53;3.20;;;;;;;0.58;93.99;101523.69;5070856;28;20024;-82
2023/03/15 06:32:29;;;;;;;5.40;3.15;;;;;;;0.63;93.88;101534.06;5071823;28;20032;-82
2023/03/15 06:34:54;;;;;;;4.70;2.90;;;;;;;0.67;93.89;101548.72;5072069;28;20024;-82
2023/03/15 06:37:20;;;;;;;4.10;2.83;;;;;;;0.71;94.66;101551.44;5071612;28;20017;-82
2023/03/15 06:39:46;;;;;;;4.03;2.75;;;;;;;0.77;94.89;101551.66;5072206;28;20029;-82
2023/03/15 06:42:12;;;;;;;4.13;2.90;;;;;;;0.86;94.86;101555.38;5072174;28;20353;-82
2023/03/15 06:44:42;;;;;;;4.25;2.70;;;;;;;0.92;94.68;101551.34;5071348;28;20476;-82
2023/03/15 06:47:10;;;;;;;4.97;2.90;;;;;;;1.01;94.41;101555.03;5072001;28;20025;-82
2023/03/15 06:49:36;;;;;;;4.25;2.83;;;;;;;1.16;95.08;101559.81;5072304;28;20060;-82
2023/03/15 06:52:03;;;;;;;3.47;2.50;;;;;;;1.40;94.88;101572.59;5071133;28;20114;-82
2023/03/15 06:54:28;;;;;;;4.80;2.72;;;;;;;2.01;95.51;101577.97;5071896;28;20477;-82
2023/03/15 06:56:54;;;;;;;2.92;2.40;;;;;;;2.90;96.80;101571.22;5071038;28;20169;-82
2023/03/15 06:59:22;;;;;;;3.67;2.60;;;;;;;3.54;95.74;101571.22;5071177;28;20082;-82
2023/03/15 07:01:47;;;;;;;3.58;2.58;;;;;;;4.01;93.52;101574.06;5074063;28;20529;-82
2023/03/15 07:04:13;;;;;;;3.35;2.60;;;;;;;4.31;91.89;101585.00;5074985;28;20029;-82
2023/03/15 07:06:38;;;;;;;3.55;2.70;;;;;;;4.01;90.68;101583.47;5075609;28;20409;-82
2023/03/15 07:09:04;;;;;;;3.75;2.78;;;;;;;3.65;90.04;101598.03;5075263;28;20025;-82
2023/03/15 07:11:30;;;;;;;4.45;2.55;;;;;;;3.32;90.45;101605.69;5073841;28;20033;-83
2023/03/15 07:13:55;;;;;;;3.35;2.50;;;;;;;3.00;90.92;101601.41;5073022;28;20032;-81
2023/03/15 07:16:21;;;;;;;4.05;2.65;;;;;;;2.94;90.85;101619.19;5075239;28;20031;-83
2023/03/15 07:18:46;;;;;;;4.35;2.72;;;;;;;2.89;90.66;101624.19;5074364;28;20040;-82
2023/03/15 07:21:14;;;;;;;3.53;2.67;;;;;;;2.82;91.67;101632.50;5075323;28;20024;-84
2023/03/15 07:23:39;;;;;;;3.17;2.40;;;;;;;2.70;91.62;101632.19;5075016;28;20057;-83
2023/03/15 07:26:04;;;;;;;4.30;2.60;;;;;;;2.65;92.37;101632.00;5074254;28;20035;-83
2023/03/15 07:28:30;;;;;;;4.35;2.70;;;;;;;2.57;91.53;101628.34;5074636;28;20182;-84
2023/03/15 07:31:00;;;;;;;3.92;2.80;;;;;;;2.55;92.30;101641.13;5075142;28;20051;-84
2023/03/15 07:33:28;;;;;;;3.05;2.30;;;;;;;2.53;93.07;101642.78;5074332;28;20031;-83
2023/03/15 07:35:54;;;;;;;3.25;2.47;;;;;;;2.52;92.55;101647.88;5074882;28;20071;-83
2023/03/15 07:38:24;;;;;;;4.05;2.72;;;;;;;2.50;93.02;101650.38;5074976;28;20542;-83
2023/03/15 07:40:49;;;;;;;3.65;2.70;;;;;;;2.47;93.35;101650.28;5073907;28;20032;-82
2023/03/15 07:43:15;;;;;;;3.17;2.53;;;;;;;2.45;92.96;101649.38;5075247;28;20112;-83
2023/03/15 07:45:41;;;;;;;3.38;2.40;;;;;;;2.49;93.28;101652.88;5075000;28;20464;-83
2023/03/15 07:48:06;;;;;;;3.72;2.40;;;;;;;2.55;93.35;101661.63;5073961;28;20029;-83
2023/03/15 07:50:31;;;;;;;3.03;2.35;;;;;;;2.56;93.72;101663.38;5074358;28;20020;-83
2023/03/15 07:52:57;;;;;;;2.97;2.20;;;;;;;2.60;93.26;101670.31;5074469;28;20028;-83
2023/03/15 07:55:24;;;;;;;3.00;2.20;;;;;;;2.61;93.64;101664.38;5074024;28;20358;-83
2023/03/15 07:57:49;;;;;;;2.67;2.20;;;;;;;2.62;94.04;101662.69;5072354;28;20082;-82
2023/03/15 08:00:15;;;;;;;3.55;2.30;;;;;;;2.66;94.22;101679.03;5073437;28;20024;-82
2023/03/15 08:02:42;;;;;;;7.40;3.90;;;;;;;2.63;96.05;101682.38;5074494;28;20036;-82
2023/03/15 08:05:08;;;;;;;5.17;3.27;;;;;;;2.64;95.25;101686.69;5074400;28;20380;-83
2023/03/15 08:07:35;;;;;;;6.45;3.45;;;;;;;2.66;95.60;101684.16;5073917;28;20119;-82
2023/03/15 08:10:01;;;;;;;7.13;4.00;;;;;;;2.66;97.46;101694.41;5074177;28;20460;-82
2023/03/15 08:12:27;;;;;;;8.35;4.65;;;;;;;2.63;96.72;101703.75;5074457;28;20380;-81
2023/03/15 08:14:52;;;;;;;10.30;5.00;;;;;;;2.66;97.38;101705.53;5073383;28;20028;-82
2023/03/15 08:17:18;;;;;;;9.30;4.53;;;;;;;2.60;98.15;101693.38;5074160;28;20029;-82
2023/03/15 08:19:43;;;;;;;9.88;4.60;;;;;;;2.69;98.09;101713.31;5074161;28;20048;-82
2023/03/15 08:22:09;;;;;;;8.73;4.25;;;;;;;2.76;96.63;101716.94;5073106;28;20166;-83
2023/03/15 08:24:34;;;;;;;8.00;4.10;;;;;;;2.84;98.37;101723.16;5073763;28;20040;-83
2023/03/15 08:27:00;;;;;;;8.05;4.20;;;;;;;2.89;96.90;101723.31;5073801;28;20025;-87
2023/03/15 08:29:26;;;;;;;7.75;4.10;;;;;;;2.93;97.11;101723.44;5073240;28;20021;-83
2023/03/15 08:31:51;;;;;;;6.72;3.53;;;;;;;2.99;97.05;101733.03;5073868;28;20085;-82
2023/03/15 08:34:16;;;;;;;7.05;3.53;;;;;;;3.03;95.71;101736.56;5074054;28;20034;-82
2023/03/15 08:36:41;;;;;;;5.05;3.20;;;;;;;3.11;96.00;101742.78;5073018;28;20024;-81
2023/03/15 08:39:07;;;;;;;6.38;3.70;;;;;;;3.19;96.00;101749.00;5073454;28;20474;-78
2023/03/15 08:41:33;;;;;;;5.68;3.05;;;;;;;3.26;96.21;101750.06;5073413;28;20024;-78
2023/03/15 08:43:59;;;;;;;5.53;3.17;;;;;;;3.34;95.54;101742.59;5072459;28;20032;-77
2023/03/15 08:46:25;;;;;;;6.00;3.00;;;;;;;3.42;95.97;101741.13;5073747;28;20464;-81
2023/03/15 08:48:50;;;;;;;4.00;2.60;;;;;;;3.53;95.74;101750.00;5073372;28;20055;-80
2023/03/15 08:51:15;;;;;;;5.25;2.83;;;;;;;3.60;94.29;101751.03;5072843;28;20063;-83
2023/03/15 08:53:41;;;;;;;2.75;2.38;;;;;;;3.69;94.00;101747.88;5073201;28;20036;-82
2023/03/15 08:56:06;;;;;;;3.33;2.30;;;;;;;3.78;94.72;101740.41;5073591;28;20353;-84
2023/03/15 08:58:32;;;;;;;3.38;2.10;;;;;;;3.87;93.22;101747.50;5073405;28;20030;-82
2023/03/15 09:00:57;;;;;;;3.78;2.65;;;;;;;3.92;92.24;101757.91;5073295;28;20350;-83
2023/03/15 09:03:22;;;;;;;3.80;2.40;;;;;;;3.98;92.56;101750.34;5073541;28;20025;-83
2023/03/15 09:05:48;;;;;;;3.55;2.30;;;;;;;4.12;92.54;101760.97;5072361;28;20044;-82
2023/03/15 09:08:15;;;;;;;3.05;2.10;;;;;;;4.22;92.82;101760.41;5073287;28;20388;-83
2023/03/15 09:10:43;;;;;;;5.05;2.60;;;;;;;4.35;90.79;101764.16;5072522;28;20381;-82
2023/03/15 09:13:09;;;;;;;3.10;2.20;;;;;;;4.44;91.76;101759.22;5073204;28;20023;-83
2023/03/15 09:15:34;;;;;;;2.63;1.90;;;;;;;4.58;91.99;101761.28;5073391;28;20025;-83
2023/03/15 09:17:59;;;;;;;3.65;2.20;;;;;;;4.74;91.69;101768.50;5071939;28;20488;-81
2023/03/15 09:20:27;;;;;;;5.32;2.35;;;;;;;4.83;89.47;101770.44;5073316;28;20031;-90
2023/03/15 09:22:54;;;;;;;6.15;2.42;;;;;;;4.86;88.75;101761.91;5073799;28;20040;-88
2023/03/15 09:25:21;;;;;;;3.67;2.20;;;;;;;4.94;87.09;101761.28;5072631;28;20384;-83
2023/03/15 09:27:47;;;;;;;5.57;2.30;;;;;;;5.00;86.62;101765.69;5072460;28;20107;-83
2023/03/15 09:30:12;;;;;;;3.65;2.30;;;;;;;5.08;86.88;101774.44;5073238;28;20111;-84
2023/03/15 09:32:42;;;;;;;4.27;2.10;;;;;;;5.17;87.38;101770.34;5072293;28;20067;-84
2023/03/15 09:35:12;;;;;;;4.65;1.90;;;;;;;5.28;86.19;101765.41;5072669;28;20103;-84
2023/03/15 09:37:37;;;;;;;4.78;1.90;;;;;;;5.39;84.85;101762.25;5072830;28;20048;-84
2023/03/15 09:40:03;;;;;;;3.83;1.90;;;;;;;5.55;85.96;101763.44;5059367;28;20415;-84
2023/03/15 09:42:37;;;;;;;5.97;1.90;;;;;;;5.66;86.85;101773.94;5052767;28;20385;-83
2023/03/15 09:45:20;;;;;;;4.22;1.90;;;;;;;5.80;86.64;101770.78;5052648;28;20116;-84
2023/03/15 09:47:59;;;;;;;3.00;1.80;;;;;;;5.95;84.66;101770.19;5051846;28;20029;-83
2023/03/15 09:50:31;;;;;;;2.47;1.50;;;;;;;6.09;85.79;101770.47;5052667;28;20484;-83
2023/03/15 09:52:59;;;;;;;3.47;1.63;;;;;;;6.29;85.56;101776.88;5062159;28;20448;-83
2023/03/15 09:55:26;;;;;;;3.10;1.33;;;;;;;6.50;84.99;101783.22;5072584;28;20020;-83
2023/03/15 09:58:03;;;;;;;3.83;1.60;;;;;;;6.55;84.85;101780.72;5072451;28;20388;-83
2023/03/15 10:00:42;;;;;;;1.67;1.58;;;;;;;6.47;85.62;101771.13;5071937;28;20028;-83
2023/03/15 10:03:17;;;;;;;2.70;1.30;;;;;;;6.60;83.78;101776.50;5072512;28;20025;-83
2023/03/15 10:05:46;;;;;;;3.42;1.45;;;;;;;6.81;84.36;101778.56;5072937;28;20033;-83
2023/03/15 10:08:16;;;;;;;1.33;1.23;;;;;;;7.04;82.05;101780.63;5071687;28;20032;-83
2023/03/15 10:11:08;;;;;;;2.55;1.35;;;;;;;7.29;82.19;101780.97;5072491;28;20035;-83
2023/03/15 10:13:57;;;;;;;1.45;1.30;;;;;;;7.49;82.46;101774.34;5072686;28;20129;-83
2023/03/15 10:16:51;;;;;;;5.32;1.85;;;;;;;7.73;81.68;101773.75;5072647;28;20436;-83
2023/03/15 10:19:27;;;;;;;3.58;1.67;;;;;;;7.85;80.17;101778.22;5055082;28;20040;-83
2023/03/15 10:22:20;;;;;;;4.60;1.83;;;;;;;8.08;79.46;101777.59;5071309;28;20380;-82
2023/03/15 10:24:53;;;;;;;3.00;1.48;;;;;;;8.25;71.20;101779.44;5070206;28;20049;-83
2023/03/15 10:27:47;;;;;;;3.10;1.58;;;;;;;8.33;76.36;101789.03;5072355;28;20469;-84
2023/03/15 10:30:21;;;;;;;6.93;1.90;;;;;;;8.43;76.70;101779.63;5051794;28;20028;-84
2023/03/15 10:33:05;;;;;;;2.10;1.40;;;;;;;8.50;75.46;101781.44;5052101;28;20087;-83
2023/03/15 10:35:31;;;;;;;2.63;1.40;;;;;;;8.64;75.32;101778.09;5052738;28;20028;-84
2023/03/15 10:37:57;;;;;;;3.42;1.50;;;;;;;8.83;75.07;101786.00;5055844;28;20473;-84
2023/03/15 10:40:47;;;;;;;2.08;1.13;;;;;;;8.93;73.56;101780.03;5056376;28;20034;-84
2023/03/15 10:43:31;;;;;;;3.00;1.50;;;;;;;9.08;74.11;101780.13;5055335;28;20140;-84
2023/03/15 10:46:20;;;;;;;2.38;1.45;;;;;;;9.24;73.30;101788.84;5055842;28;20423;-83
2023/03/15 10:48:58;;;;;;;2.53;1.50;;;;;;;9.37;70.97;101792.38;5055854;28;20358;-83
2023/03/15 10:51:30;;;;;;;1.30;1.10;;;;;;;9.51;68.79;101795.03;5069093;28;20555;-85
2023/03/15 10:54:04;;;;;;;4.07;1.20;;;;;;;9.63;72.15;101796.81;5075536;28;20031;-84
2023/03/15 10:56:34;;;;;;;2.70;1.20;;;;;;;9.70;68.17;101801.13;5075558;28;20021;-85
2023/03/15 10:59:00;;;;;;;5.75;1.50;;;;;;;9.80;65.60;101807.22;5075830;28;20021;-83
2023/03/15 11:01:34;;;;;;;3.20;1.30;;;;;;;9.79;66.43;101809.84;5073464;28;20024;-85
2023/03/15 11:04:12;;;;;;;3.78;1.42;;;;;;;9.85;67.67;101815.88;5072686;28;20047;-86
2023/03/15 11:06:47;;;;;;;2.97;1.10;;;;;;;9.85;65.15;101815.88;5056076;28;20051;-86
2023/03/15 11:09:22;;;;;;;3.55;1.23;;;;;;;9.92;63.75;101811.59;5062712;28;20020;-83
2023/03/15 11:11:56;;;;;;;1.17;0.93;;;;;;;10.00;66.71;101815.09;5059291;28;20107;-84
2023/03/15 11:14:25;;;;;;;6.30;1.63;;;;;;;9.99;64.52;101810.75;5075197;28;20024;-84
2023/03/15 11:16:57;;;;;;;3.25;1.45;;;;;;;9.99;62.93;101818.53;5074464;28;20108;-84
2023/03/15 11:19:27;;;;;;;3.40;1.25;;;;;;;10.04;56.01;101819.41;5074550;28;20082;-84
2023/03/15 11:21:55;;;;;;;2.50;1.50;;;;;;;10.14;65.18;101824.59;5074917;28;20037;-83
2023/03/15 11:24:32;;;;;;;2.08;0.98;;;;;;;10.27;65.39;101822.91;5074455;28;20090;-84
2023/03/15 11:27:01;;;;;;;1.58;1.10;;;;;;;10.14;60.16;101832.38;5075184;28;20033;-85
2023/03/15 11:29:32;;;;;;;2.35;1.20;;;;;;;9.92;59.41;101837.50;5075392;28;20021;-84
2023/03/15 11:32:11;;;;;;;6.60;2.00;;;;;;;9.50;51.51;101831.28;5074112;28;20032;-85
2023/03/15 11:34:39;;;;;;;6.45;1.58;;;;;;;9.02;51.58;101834.44;5075501;28;20035;-85
2023/03/15 11:37:19;;;;;;;5.85;2.05;;;;;;;8.76;59.01;101834.25;5075535;28;20025;-87